Aviation Digital Data Service (ADDS)

Output produced by METARs form (1525 UTC 20 March 2019)
found at http://www.aviationweather.gov/metar/data/
 
Forecast for: LEBB (BILBAO/SONDICA , ES)
Text: TAF LEBB 201100Z 2012/2112 10005KT 9999 SCT050 TX13/2014Z TN03/2106Z
Forecast period: 1200 UTC 20 March 2019 to 1200 UTC 21 March 2019
Forecast type: FROM: standard forecast or significant change
Winds: from the E (100 degrees) at 6 MPH (5 knots; 2.6 m/s)
Visibility: 6 or more miles 10+ km)
Ceiling: at least 12,000 feet AGL
Clouds: scattered clouds at 5000 feet AGL
Weather: no significant weather forecast for this period
Text: TEMPO 2012/2022 02010KT
Forecast period: 1200 to 2200 UTC 20 March 2019
Forecast type: TEMPORARY: The following changes expected for less than half the time period
Winds: from the NNE (20 degrees) at 12 MPH (10 knots; 5.1 m/s)
Visibility: missing
Ceiling: unknown
Clouds: missing
Weather: no significant weather forecast for this period